createdAt,value
2022-08-03T00:00:24.344Z,71.94
2022-08-03T00:02:51.091Z,71.58
2022-08-03T00:05:17.555Z,72.61
2022-08-03T00:07:44.042Z,71.75
2022-08-03T00:10:11.167Z,70.90
2022-08-03T00:12:37.670Z,72.45
2022-08-03T00:15:04.591Z,71.46
2022-08-03T00:17:52.756Z,71.99
2022-08-03T00:20:21.298Z,72.41
2022-08-03T00:22:47.889Z,72.61
2022-08-03T00:25:14.404Z,73.00
2022-08-03T00:27:40.881Z,72.95
2022-08-03T00:30:07.623Z,72.89
2022-08-03T00:32:34.091Z,73.72
2022-08-03T00:35:00.599Z,72.68
2022-08-03T00:37:40.830Z,72.58
2022-08-03T00:40:10.533Z,72.54
2022-08-03T00:42:46.929Z,73.81
2022-08-03T00:45:13.438Z,73.35
2022-08-03T00:47:39.897Z,71.83
2022-08-03T00:50:06.723Z,71.14
2022-08-03T00:52:34.005Z,71.92
2022-08-03T00:55:01.456Z,72.27
2022-08-03T00:57:30.450Z,72.99
2022-08-03T00:59:57.130Z,71.74
2022-08-03T01:02:23.674Z,71.86
2022-08-03T01:04:50.251Z,72.28
2022-08-03T01:07:51.113Z,72.09
2022-08-03T01:10:26.955Z,73.17
2022-08-03T01:13:59.961Z,72.75
2022-08-03T01:16:07.975Z,71.26
2022-08-03T01:18:51.051Z,70.82
2022-08-03T01:21:27.504Z,72.36
2022-08-03T01:24:44.505Z,72.66
2022-08-03T01:27:17.855Z,73.23
2022-08-03T01:29:58.546Z,73.46
2022-08-03T01:32:59.697Z,73.72
2022-08-03T01:35:27.691Z,74.27
2022-08-03T01:38:04.507Z,73.97
2022-08-03T01:40:34.577Z,73.78
2022-08-03T01:43:06.679Z,73.10
2022-08-03T01:45:34.647Z,72.67
2022-08-03T01:48:02.639Z,74.20
2022-08-03T01:50:30.863Z,74.29
2022-08-03T01:52:58.502Z,73.05
2022-08-03T01:55:28.286Z,73.17
2022-08-03T01:58:04.885Z,72.55
2022-08-03T02:00:35.437Z,73.15
2022-08-03T02:03:05.226Z,73.01
2022-08-03T02:05:32.400Z,73.04
2022-08-03T02:08:00.200Z,73.25
2022-08-03T02:10:34.777Z,73.19
2022-08-03T02:13:05.133Z,73.61
2022-08-03T02:15:34.060Z,73.26
2022-08-03T02:18:02.430Z,72.93
2022-08-03T02:20:33.168Z,72.93
2022-08-03T02:23:00.273Z,73.39
2022-08-03T02:25:28.242Z,74.44
2022-08-03T02:28:19.272Z,74.80
2022-08-03T02:30:51.740Z,73.18
2022-08-03T02:33:27.010Z,73.09
2022-08-03T02:35:55.142Z,72.69
2022-08-03T02:38:26.194Z,72.37
2022-08-03T02:40:56.299Z,73.32
2022-08-03T02:43:24.627Z,73.93
2022-08-03T02:45:53.588Z,73.39
2022-08-03T02:48:29.296Z,73.83
2022-08-03T02:51:02.311Z,73.81
2022-08-03T02:53:30.711Z,74.33
2022-08-03T02:55:59.257Z,74.16
2022-08-03T02:58:26.281Z,74.62
2022-08-03T03:01:06.569Z,73.75
2022-08-03T03:03:39.961Z,73.59
2022-08-03T03:06:13.476Z,74.28
2022-08-03T03:08:42.280Z,74.08
2022-08-03T03:11:10.300Z,74.94
2022-08-03T03:13:37.975Z,74.86
2022-08-03T03:16:08.615Z,74.97
2022-08-03T03:18:37.390Z,73.92
2022-08-03T03:21:04.936Z,73.97
2022-08-03T03:23:35.208Z,73.02
2022-08-03T03:26:02.401Z,73.93
2022-08-03T03:28:30.553Z,73.33
2022-08-03T03:30:57.162Z,73.88
2022-08-03T03:33:24.214Z,72.42
2022-08-03T03:35:51.920Z,72.00
2022-08-03T03:38:19.858Z,73.13
2022-08-03T03:40:46.491Z,73.01
2022-08-03T03:43:13.492Z,72.76
2022-08-03T03:45:43.496Z,72.41
2022-08-03T03:48:10.748Z,71.68
2022-08-03T03:50:40.822Z,72.89
2022-08-03T03:53:10.604Z,74.82
2022-08-03T03:55:59.490Z,73.82
2022-08-03T03:58:25.016Z,75.50
2022-08-03T04:00:51.717Z,76.67
2022-08-03T04:03:18.227Z,75.68
2022-08-03T04:06:03.332Z,75.73
2022-08-03T04:08:49.454Z,75.63
2022-08-03T04:11:58.565Z,75.25
2022-08-03T04:14:35.127Z,75.92
2022-08-03T04:17:03.573Z,76.10
2022-08-03T04:19:32.960Z,75.70
2022-08-03T04:22:03.732Z,74.91
2022-08-03T04:24:38.355Z,75.35
2022-08-03T04:27:08.926Z,75.24
2022-08-03T04:29:48.042Z,75.85
2022-08-03T04:32:17.184Z,76.43
2022-08-03T04:34:44.459Z,75.75
2022-08-03T04:37:35.275Z,76.25
2022-08-03T04:40:05.928Z,76.49
2022-08-03T04:42:33.882Z,76.17
2022-08-03T04:45:02.819Z,75.94
2022-08-03T04:47:32.970Z,76.23
2022-08-03T04:50:12.963Z,76.52
2022-08-03T04:52:44.029Z,75.99
2022-08-03T04:55:11.055Z,75.71
2022-08-03T04:57:41.381Z,75.27
2022-08-03T05:00:17.976Z,74.83
2022-08-03T05:02:47.291Z,74.58
2022-08-03T05:05:16.270Z,75.00
2022-08-03T05:08:05.128Z,74.68
2022-08-03T05:10:48.354Z,74.58
2022-08-03T05:13:17.181Z,74.83
2022-08-03T05:15:47.806Z,74.55
2022-08-03T05:18:22.002Z,73.18
2022-08-03T05:44:44.322Z,70.79
2022-08-03T05:47:21.262Z,69.99
2022-08-03T05:50:00.864Z,69.02
2022-08-03T06:15:51.131Z,58.66
2022-08-03T06:18:18.014Z,58.95
2022-08-03T07:17:00.310Z,44.47
2022-08-03T07:19:26.768Z,43.39
2022-08-03T07:21:53.651Z,42.66
2022-08-03T07:24:20.259Z,41.92
2022-08-03T07:26:46.609Z,41.92
2022-08-03T07:29:15.509Z,40.25
2022-08-03T07:31:42.511Z,39.60
2022-08-03T07:34:09.134Z,39.20
2022-08-03T07:36:35.583Z,38.32
2022-08-03T07:39:17.692Z,40.88
2022-08-03T07:41:51.949Z,36.62
2022-08-03T07:48:12.394Z,38.24
2022-08-03T07:51:07.295Z,37.64
2022-08-03T07:56:47.696Z,33.06
2022-08-03T08:00:24.635Z,27.84
2022-08-03T08:07:18.344Z,30.57
2022-08-03T08:10:33.103Z,29.66
2022-08-03T08:16:20.892Z,32.87
2022-08-03T08:18:47.763Z,32.93
2022-08-03T08:22:14.388Z,33.12
2022-08-03T08:25:21.541Z,33.25
2022-08-03T08:28:29.831Z,34.16
2022-08-03T08:30:59.278Z,33.24
2022-08-03T08:33:25.923Z,34.39
2022-08-03T08:35:54.250Z,35.47
2022-08-03T08:38:21.989Z,34.27
2022-08-03T08:40:50.155Z,35.50
2022-08-03T08:43:16.699Z,34.38
2022-08-03T08:45:44.962Z,33.29
2022-08-03T08:48:14.233Z,32.33
2022-08-03T08:50:41.124Z,30.87
2022-08-03T08:53:17.392Z,33.16
2022-08-03T08:55:58.715Z,32.33
2022-08-03T08:58:30.026Z,31.98
2022-08-03T09:01:00.026Z,32.90
2022-08-03T09:03:32.726Z,33.34
2022-08-03T09:06:01.038Z,33.02
2022-08-03T09:08:37.038Z,33.31
2022-08-03T09:11:03.672Z,31.86
2022-08-03T09:25:23.456Z,31.78
2022-08-03T09:27:53.537Z,33.18
2022-08-03T09:30:34.573Z,32.31
2022-08-03T09:33:17.338Z,32.20
2022-08-03T09:36:18.954Z,32.64
2022-08-03T09:39:02.043Z,32.60
2022-08-03T09:41:28.760Z,32.32
2022-08-03T09:43:57.212Z,31.82
2022-08-03T09:46:24.027Z,31.93
2022-08-03T09:48:50.579Z,30.91
2022-08-03T09:51:33.059Z,32.15
2022-08-03T09:54:15.088Z,31.77
2022-08-03T09:56:46.893Z,31.62
2022-08-03T09:59:33.484Z,30.08
2022-08-03T10:02:00.909Z,31.00
2022-08-03T10:04:30.511Z,32.04
2022-08-03T10:07:07.520Z,32.08
2022-08-03T10:09:34.043Z,30.44
2022-08-03T10:12:12.596Z,32.40
2022-08-03T10:14:41.998Z,31.92
2022-08-03T10:17:09.621Z,31.87
2022-08-03T10:31:57.697Z,31.18
2022-08-03T10:35:20.245Z,31.70
2022-08-03T10:42:27.718Z,31.61
2022-08-03T11:25:54.679Z,31.67
2022-08-03T11:28:28.796Z,32.85
2022-08-03T11:30:55.382Z,30.43
2022-08-03T11:33:32.117Z,30.02
2022-08-03T11:36:03.220Z,29.27
2022-08-03T11:38:29.874Z,30.86
2022-08-03T11:40:56.391Z,29.51
2022-08-03T11:43:42.923Z,29.94
2022-08-03T12:01:42.644Z,31.40
2022-08-03T12:05:09.390Z,30.91
2022-08-03T12:14:50.624Z,30.89
2022-08-03T12:17:46.117Z,29.43
2022-08-03T12:20:34.783Z,30.19
2022-08-03T12:31:03.517Z,29.78
2022-08-03T12:48:31.775Z,29.62
2022-08-03T12:51:39.641Z,29.94
2022-08-03T12:54:06.427Z,27.82
2022-08-03T12:56:33.620Z,28.98
2022-08-03T12:59:00.491Z,29.48
2022-08-03T13:01:28.979Z,29.23
2022-08-03T13:04:00.310Z,28.71
2022-08-03T13:06:30.866Z,28.36
2022-08-03T13:09:17.374Z,28.32
2022-08-03T13:11:57.449Z,28.09
2022-08-03T13:14:29.057Z,30.06
2022-08-03T13:16:55.825Z,30.29
2022-08-03T13:19:24.523Z,29.86
2022-08-03T13:22:01.385Z,29.48
2022-08-03T13:24:31.909Z,29.04
2022-08-03T13:26:59.520Z,29.46
2022-08-03T13:29:26.028Z,28.49
2022-08-03T13:31:52.666Z,28.07
2022-08-03T13:34:23.065Z,29.00
2022-08-03T13:37:08.417Z,30.88
2022-08-03T13:39:58.300Z,28.13
2022-08-03T13:42:22.202Z,28.37
2022-08-03T13:44:48.713Z,28.70
2022-08-03T13:47:15.204Z,28.84
2022-08-03T13:49:42.261Z,28.04
2022-08-03T13:52:26.065Z,29.85
2022-08-03T13:54:52.535Z,28.90
2022-08-03T13:58:04.847Z,28.08
2022-08-03T14:00:06.847Z,27.71
2022-08-03T14:02:33.348Z,28.32
2022-08-03T14:04:59.816Z,28.96
2022-08-03T14:07:26.295Z,28.75
2022-08-03T14:09:55.222Z,27.92
2022-08-03T14:12:21.682Z,29.43
2022-08-03T14:14:48.158Z,28.76
2022-08-03T14:17:16.332Z,28.89
2022-08-03T14:19:53.015Z,28.51
2022-08-03T14:22:21.157Z,28.91
2022-08-03T14:24:49.248Z,28.66
2022-08-03T14:27:16.590Z,29.72
2022-08-03T14:29:44.594Z,27.88
2022-08-03T14:32:13.434Z,28.02
2022-08-03T14:34:40.956Z,28.12
2022-08-03T14:37:08.129Z,28.64
2022-08-03T14:42:21.639Z,28.57
2022-08-03T14:44:48.126Z,28.88
2022-08-03T14:47:14.817Z,27.28
2022-08-03T14:50:34.780Z,27.29
2022-08-03T14:52:28.798Z,28.31
2022-08-03T14:54:55.406Z,27.71
2022-08-03T14:57:22.154Z,27.67
2022-08-03T14:59:56.063Z,27.04
2022-08-03T15:02:24.813Z,28.08
2022-08-03T15:04:52.304Z,29.25
2022-08-03T15:07:20.480Z,27.76
2022-08-03T15:09:47.243Z,28.29
2022-08-03T15:12:13.701Z,27.07
2022-08-03T15:14:40.386Z,26.52
2022-08-03T15:17:07.552Z,27.22
2022-08-03T15:20:00.343Z,27.37
2022-08-03T15:22:25.373Z,28.41
2022-08-03T15:26:04.032Z,28.02
2022-08-03T15:28:03.578Z,27.02
2022-08-03T15:30:33.859Z,28.51
2022-08-03T15:33:00.346Z,27.35
2022-08-03T15:35:28.890Z,28.85
2022-08-03T15:37:55.561Z,27.83
2022-08-03T15:40:22.413Z,29.83
2022-08-03T15:42:49.038Z,30.21
2022-08-03T15:45:17.836Z,30.08
2022-08-03T15:47:47.251Z,29.58
2022-08-03T15:50:13.770Z,28.42
2022-08-03T15:52:40.262Z,28.34
2022-08-03T15:55:07.343Z,29.42
2022-08-03T15:57:33.981Z,28.51
2022-08-03T16:00:20.589Z,28.18
2022-08-03T16:03:00.128Z,27.10
2022-08-03T16:05:26.628Z,27.62
2022-08-03T16:08:02.944Z,27.52
2022-08-03T16:10:30.754Z,27.69
2022-08-03T16:12:58.851Z,26.92
2022-08-03T16:15:25.374Z,26.80
2022-08-03T16:17:51.900Z,27.01
2022-08-03T16:20:31.450Z,27.06
2022-08-03T16:23:06.978Z,28.15
2022-08-03T16:25:41.693Z,27.29
2022-08-03T16:28:13.824Z,28.39
2022-08-03T16:30:42.641Z,29.10
2022-08-03T16:33:10.555Z,27.28
2022-08-03T16:35:37.105Z,27.34
2022-08-03T16:38:09.622Z,28.13
2022-08-03T16:40:40.025Z,28.71
2022-08-03T16:43:17.913Z,28.27
2022-08-03T16:45:48.773Z,28.46
2022-08-03T16:48:16.182Z,31.42
2022-08-03T16:50:43.046Z,29.68
2022-08-03T16:53:15.711Z,30.09
2022-08-03T16:55:51.802Z,32.50
2022-08-03T16:58:34.522Z,35.38
2022-08-03T17:01:22.413Z,35.52
2022-08-03T17:04:01.343Z,35.21
2022-08-03T17:06:35.294Z,35.44
2022-08-03T17:09:08.939Z,35.47
2022-08-03T17:11:47.512Z,34.85
2022-08-03T17:14:21.632Z,34.82
2022-08-03T17:16:54.153Z,36.95
2022-08-03T17:19:25.565Z,36.52
2022-08-03T17:22:01.576Z,37.49
2022-08-03T17:24:40.925Z,38.25
2022-08-03T17:27:23.179Z,39.14
2022-08-03T17:30:12.009Z,38.13
2022-08-03T17:32:56.562Z,40.65
2022-08-03T17:35:35.562Z,41.37
2022-08-03T17:38:06.618Z,41.51
2022-08-03T17:40:37.975Z,43.30
2022-08-03T17:44:13.847Z,42.72
2022-08-03T17:45:59.149Z,43.66
2022-08-03T17:48:27.530Z,42.86
2022-08-03T17:51:03.400Z,44.08
2022-08-03T17:53:37.580Z,43.84
2022-08-03T17:56:46.022Z,45.21
2022-08-03T17:59:51.725Z,47.05
2022-08-03T18:03:10.119Z,47.06
2022-08-03T18:06:11.276Z,45.76
2022-08-03T18:08:38.851Z,45.65
2022-08-03T18:11:14.476Z,46.15
2022-08-03T18:14:03.065Z,46.07
2022-08-03T18:16:44.998Z,47.13
2022-08-03T18:19:14.443Z,49.00
2022-08-03T18:22:03.211Z,49.25
2022-08-03T18:24:32.456Z,49.76
2022-08-03T18:27:02.278Z,51.01
2022-08-03T18:29:30.947Z,49.76
2022-08-03T18:32:03.844Z,49.98
2022-08-03T18:34:34.714Z,51.39
2022-08-03T18:37:10.749Z,50.09
2022-08-03T18:39:50.337Z,51.59
2022-08-03T18:42:25.873Z,51.53
2022-08-03T18:45:00.303Z,52.22
2022-08-03T18:48:00.607Z,53.11
2022-08-03T18:51:03.965Z,52.55
2022-08-03T18:54:44.617Z,52.64
2022-08-03T18:57:30.220Z,51.38
2022-08-03T19:00:54.329Z,51.35
2022-08-03T19:03:42.951Z,51.80
2022-08-03T19:06:24.399Z,52.93
2022-08-03T19:09:28.786Z,52.78
2022-08-03T19:15:16.615Z,52.19
2022-08-03T19:17:52.872Z,52.24
2022-08-03T19:20:38.824Z,51.86
2022-08-03T19:23:11.835Z,52.46
2022-08-03T19:25:41.461Z,52.24
2022-08-03T19:28:12.105Z,52.69
2022-08-03T19:30:40.475Z,53.86
2022-08-03T19:33:12.766Z,54.06
2022-08-03T19:35:54.784Z,53.81
2022-08-03T19:38:28.428Z,54.70
2022-08-03T19:41:03.239Z,56.42
2022-08-03T19:44:20.070Z,57.29
2022-08-03T19:46:53.656Z,55.78
2022-08-03T19:50:04.607Z,57.18
2022-08-03T19:52:24.584Z,57.38
2022-08-03T19:55:05.902Z,56.22
2022-08-03T19:57:34.126Z,57.25
2022-08-03T20:00:05.397Z,57.34
2022-08-03T20:02:37.997Z,56.25
2022-08-03T20:05:15.860Z,56.13
2022-08-03T20:07:48.273Z,57.33
2022-08-03T20:10:19.417Z,56.92
2022-08-03T20:12:48.572Z,58.46
2022-08-03T20:15:22.499Z,57.66
2022-08-03T20:17:58.680Z,58.81
2022-08-03T20:20:39.032Z,58.28
2022-08-03T20:23:13.844Z,59.38
2022-08-03T20:25:48.945Z,59.16
2022-08-03T20:28:52.963Z,57.54
2022-08-03T20:31:25.176Z,60.90
2022-08-03T20:34:00.519Z,59.95
2022-08-03T20:36:27.319Z,59.56
2022-08-03T20:38:57.645Z,59.51
2022-08-03T20:41:24.748Z,58.81
2022-08-03T20:43:51.207Z,60.33
2022-08-03T20:46:30.833Z,59.97
2022-08-03T20:49:04.297Z,59.06
2022-08-03T20:51:50.068Z,59.96
2022-08-03T20:54:23.115Z,59.85
2022-08-03T20:57:04.314Z,60.38
2022-08-03T20:59:55.677Z,61.34
2022-08-03T21:02:29.865Z,62.05
2022-08-03T21:05:08.461Z,62.29
2022-08-03T21:08:05.111Z,62.45
2022-08-03T21:10:38.024Z,61.50
2022-08-03T21:13:08.789Z,52.67
2022-08-03T21:13:18.171Z,62.79
2022-08-03T21:16:03.304Z,63.64
2022-08-03T21:18:50.050Z,62.85
2022-08-03T21:21:23.818Z,63.93
2022-08-03T21:23:53.083Z,63.30
2022-08-03T21:26:24.894Z,62.99
2022-08-03T21:28:53.835Z,62.92
2022-08-03T21:31:25.390Z,62.42
2022-08-03T21:33:57.689Z,63.13
2022-08-03T21:36:27.337Z,63.01
2022-08-03T21:38:56.461Z,63.73
2022-08-03T21:41:25.135Z,64.18
2022-08-03T21:43:51.636Z,64.62
2022-08-03T21:46:20.020Z,64.64
2022-08-03T21:48:50.609Z,63.40
2022-08-03T21:51:19.275Z,63.73
2022-08-03T21:54:00.351Z,63.63
2022-08-03T21:56:37.119Z,64.95
2022-08-03T21:59:07.031Z,64.65
2022-08-03T22:01:35.877Z,65.01
2022-08-03T22:04:09.386Z,64.75
2022-08-03T22:06:51.178Z,64.87
2022-08-03T22:09:19.150Z,65.81
2022-08-03T22:11:47.982Z,65.73
2022-08-03T22:14:14.469Z,66.66
2022-08-03T22:16:41.312Z,67.58
2022-08-03T22:19:08.357Z,67.06
2022-08-03T22:21:36.687Z,66.64
2022-08-03T22:24:05.475Z,66.71
2022-08-03T22:26:35.365Z,67.66
2022-08-03T22:29:07.247Z,67.63
2022-08-03T22:31:57.362Z,67.43
2022-08-03T22:34:26.481Z,67.79
2022-08-03T22:36:55.703Z,69.45
2022-08-03T22:39:28.888Z,69.21
2022-08-03T22:41:58.856Z,69.84
2022-08-03T22:44:26.871Z,70.56
2022-08-03T22:46:53.671Z,69.51
2022-08-03T22:49:20.758Z,70.22
2022-08-03T22:51:47.551Z,71.23
2022-08-03T22:54:14.793Z,70.63
2022-08-03T22:56:41.563Z,70.01
2022-08-03T22:59:40.783Z,69.42
2022-08-03T23:02:00.403Z,70.72
2022-08-03T23:04:29.727Z,71.29
2022-08-03T23:07:01.898Z,71.21
2022-08-03T23:09:30.313Z,71.97
2022-08-03T23:11:58.760Z,71.50
2022-08-03T23:14:29.234Z,72.25
2022-08-03T23:16:56.780Z,71.99
2022-08-03T23:19:34.240Z,72.19
2022-08-03T23:22:06.967Z,72.55
2022-08-03T23:24:53.827Z,73.55
2022-08-03T23:27:21.122Z,73.71
2022-08-03T23:29:50.496Z,74.94
2022-08-03T23:32:20.635Z,73.44
2022-08-03T23:35:07.179Z,73.48
2022-08-03T23:38:04.571Z,74.42
2022-08-03T23:40:28.891Z,73.75
2022-08-03T23:42:57.112Z,72.85
2022-08-03T23:45:26.053Z,73.73
2022-08-03T23:47:52.511Z,74.62
2022-08-03T23:50:19.160Z,73.28
2022-08-03T23:52:52.834Z,73.64
2022-08-03T23:55:40.058Z,74.13
2022-08-03T23:58:18.667Z,73.71
